createdAt,value
2019-03-05T00:00:42.980Z,90.10
2019-03-05T00:03:11.539Z,91.10
2019-03-05T00:05:40.079Z,92.20
2019-03-05T00:08:08.629Z,94.10
2019-03-05T00:10:37.190Z,95.20
2019-03-05T00:13:05.779Z,96.60
2019-03-05T00:15:34.415Z,97.80
2019-03-05T00:18:02.958Z,99.00
2019-03-05T00:20:31.452Z,99.90
2019-03-05T00:22:59.912Z,99.90
2019-03-05T00:25:31.524Z,99.90
2019-03-05T00:28:18.855Z,99.90
2019-03-05T00:30:53.647Z,99.90
2019-03-05T00:33:25.162Z,99.90
2019-03-05T00:36:26.582Z,99.90
2019-03-05T00:38:58.106Z,99.90
2019-03-05T00:41:32.295Z,99.90
2019-03-05T00:44:04.741Z,99.90
2019-03-05T00:46:58.815Z,99.90
2019-03-05T00:49:51.735Z,99.90
2019-03-05T00:52:29.038Z,99.90
2019-03-05T00:55:12.455Z,99.90
2019-03-05T00:57:46.879Z,99.90
2019-03-05T01:00:33.391Z,99.90
2019-03-05T01:03:05.861Z,99.90
2019-03-05T01:05:43.173Z,99.90
2019-03-05T01:08:11.684Z,99.90
2019-03-05T01:10:40.196Z,99.90
2019-03-05T01:13:09.012Z,99.90
2019-03-05T01:15:37.528Z,99.90
2019-03-05T01:18:06.170Z,99.90
2019-03-05T01:20:34.626Z,99.90
2019-03-05T01:23:03.638Z,99.90
2019-03-05T01:25:34.216Z,99.90
2019-03-05T01:28:02.922Z,99.90
2019-03-05T01:30:38.569Z,99.90
2019-03-05T01:33:08.745Z,99.90
2019-03-05T01:35:38.884Z,99.90
2019-03-05T01:38:07.409Z,99.90
2019-03-05T01:40:36.839Z,99.90
2019-03-05T01:43:05.369Z,99.90
2019-03-05T01:45:33.894Z,99.90
2019-03-05T01:48:02.620Z,99.90
2019-03-05T01:50:31.112Z,99.90
2019-03-05T01:52:59.730Z,99.90
2019-03-05T01:55:28.342Z,99.90
2019-03-05T01:57:56.873Z,99.90
2019-03-05T02:00:25.653Z,99.90
2019-03-05T02:02:54.114Z,99.90
2019-03-05T02:05:22.785Z,99.90
2019-03-05T02:07:52.424Z,99.90
2019-03-05T02:10:22.578Z,99.90
2019-03-05T02:12:51.121Z,99.90
2019-03-05T02:15:19.708Z,99.90
2019-03-05T02:17:48.160Z,99.90
2019-03-05T02:20:24.261Z,99.90
2019-03-05T02:22:55.820Z,99.90
2019-03-05T02:25:30.086Z,99.90
2019-03-05T02:28:16.243Z,99.90
2019-03-05T02:30:50.340Z,99.90
2019-03-05T02:33:24.405Z,99.90
2019-03-05T02:36:01.749Z,99.90
2019-03-05T02:38:36.003Z,99.90
2019-03-05T02:41:15.223Z,99.90
2019-03-05T02:43:55.706Z,99.90
2019-03-05T02:46:48.619Z,99.90
2019-03-05T02:49:35.030Z,99.90
2019-03-05T02:52:15.687Z,99.90
2019-03-05T02:55:05.507Z,99.90
2019-03-05T02:57:32.931Z,99.90
2019-03-05T03:00:01.444Z,99.90
2019-03-05T03:02:40.443Z,99.90
2019-03-05T03:05:11.591Z,99.90
2019-03-05T03:07:40.101Z,99.90
2019-03-05T03:10:18.188Z,99.90
2019-03-05T03:12:46.785Z,99.90
2019-03-05T03:15:15.570Z,99.90
2019-03-05T03:17:44.574Z,99.90
2019-03-05T03:20:14.561Z,99.90
2019-03-05T03:22:43.478Z,99.90
2019-03-05T03:25:14.868Z,99.90
2019-03-05T03:27:43.359Z,99.90
2019-03-05T03:30:14.387Z,99.90
2019-03-05T03:32:42.969Z,99.90
2019-03-05T03:35:13.768Z,99.90
2019-03-05T03:37:42.411Z,99.90
2019-03-05T03:40:13.441Z,99.90
2019-03-05T03:42:42.109Z,99.90
2019-03-05T03:45:13.854Z,99.90
2019-03-05T03:47:42.548Z,99.90
2019-03-05T03:50:11.441Z,99.90
2019-03-05T03:52:39.960Z,99.90
2019-03-05T03:55:13.658Z,99.90
2019-03-05T03:57:42.314Z,99.90
2019-03-05T04:00:17.585Z,99.90
2019-03-05T04:02:46.102Z,99.90
2019-03-05T04:05:14.731Z,99.90
2019-03-05T04:07:43.426Z,99.90
2019-03-05T04:10:14.894Z,99.90
2019-03-05T04:12:43.424Z,99.90
2019-03-05T04:15:14.361Z,99.90
2019-03-05T04:17:42.880Z,99.90
2019-03-05T04:20:14.435Z,99.90
2019-03-05T04:22:42.900Z,99.90
2019-03-05T04:25:11.532Z,99.90
2019-03-05T04:27:39.995Z,99.90
2019-03-05T04:30:13.855Z,99.90
2019-03-05T04:32:42.371Z,99.90
2019-03-05T04:35:12.377Z,99.90
2019-03-05T04:37:40.971Z,99.90
2019-03-05T04:40:11.461Z,99.90
2019-03-05T04:42:39.990Z,99.90
2019-03-05T04:45:29.236Z,99.90
2019-03-05T04:47:57.861Z,99.90
2019-03-05T04:50:33.884Z,99.90
2019-03-05T04:53:02.413Z,99.90
2019-03-05T04:55:30.951Z,99.90
2019-03-05T04:57:59.499Z,99.90
2019-03-05T05:00:28.086Z,99.90
2019-03-05T05:02:58.429Z,99.90
2019-03-05T05:05:26.819Z,99.90
2019-03-05T05:07:55.297Z,99.90
2019-03-05T05:10:23.813Z,99.90
2019-03-05T05:12:52.297Z,99.90
2019-03-05T05:15:31.703Z,99.90
2019-03-05T05:18:00.382Z,99.90
2019-03-05T05:20:29.007Z,99.90
2019-03-05T05:22:57.546Z,99.90
2019-03-05T05:25:26.222Z,99.90
2019-03-05T05:27:54.760Z,99.90
2019-03-05T05:30:40.745Z,99.90
2019-03-05T05:33:09.327Z,99.90
2019-03-05T05:35:37.893Z,99.90
2019-03-05T05:38:06.481Z,99.90
2019-03-05T05:40:36.680Z,99.90
2019-03-05T05:43:07.419Z,99.90
2019-03-05T05:45:41.950Z,99.90
2019-03-05T05:48:10.428Z,99.90
2019-03-05T05:50:38.883Z,99.90
2019-03-05T05:53:07.513Z,99.90
2019-03-05T05:55:36.053Z,99.90
2019-03-05T05:58:04.808Z,99.90
2019-03-05T06:00:33.593Z,99.90
2019-03-05T06:03:02.159Z,99.90
2019-03-05T06:05:30.633Z,99.90
2019-03-05T06:07:59.109Z,99.90
2019-03-05T06:10:27.623Z,99.90
2019-03-05T06:12:56.161Z,99.90
2019-03-05T06:15:24.713Z,99.90
2019-03-05T06:17:53.206Z,99.90
2019-03-05T06:20:21.665Z,99.90
2019-03-05T06:22:50.211Z,99.90
2019-03-05T06:25:18.857Z,99.90
2019-03-05T06:27:47.506Z,99.90
2019-03-05T06:30:25.874Z,99.90
2019-03-05T06:32:54.489Z,99.90
2019-03-05T06:35:23.154Z,99.90
2019-03-05T06:37:51.759Z,99.90
2019-03-05T06:40:27.916Z,99.90
2019-03-05T06:42:56.602Z,99.90
2019-03-05T06:45:25.079Z,99.90
2019-03-05T06:47:53.645Z,99.90
2019-03-05T06:50:26.541Z,99.90
2019-03-05T06:52:55.159Z,99.90
2019-03-05T06:55:23.741Z,99.90
2019-03-05T06:57:52.311Z,99.90
2019-03-05T07:00:33.487Z,99.90
2019-03-05T07:03:02.331Z,99.90
2019-03-05T07:06:06.841Z,99.90
2019-03-05T07:08:36.674Z,99.90
2019-03-05T07:11:16.744Z,99.90
2019-03-05T07:13:46.847Z,99.90
2019-03-05T07:16:18.405Z,99.90
2019-03-05T07:18:49.640Z,99.90
2019-03-05T07:21:27.031Z,99.90
2019-03-05T07:24:28.939Z,99.90
2019-03-05T07:26:58.425Z,99.90
2019-03-05T07:29:26.964Z,99.90
2019-03-05T07:31:55.451Z,99.90
2019-03-05T07:34:25.606Z,99.90
2019-03-05T07:36:54.110Z,99.90
2019-03-05T07:39:24.217Z,99.90
2019-03-05T07:41:52.714Z,99.90
2019-03-05T07:44:21.342Z,99.90
2019-03-05T07:46:49.810Z,99.90
2019-03-05T07:49:18.278Z,99.90
2019-03-05T07:51:46.889Z,99.90
2019-03-05T07:54:15.416Z,99.90
2019-03-05T07:56:43.959Z,99.90
2019-03-05T07:59:12.417Z,99.90
2019-03-05T08:01:40.983Z,99.90
2019-03-05T08:04:09.620Z,99.90
2019-03-05T08:06:38.133Z,99.90
2019-03-05T08:09:31.198Z,99.90
2019-03-05T08:12:20.488Z,99.90
2019-03-05T08:15:11.782Z,99.90
2019-03-05T08:17:40.246Z,99.90
2019-03-05T08:20:11.357Z,99.90
2019-03-05T08:22:40.784Z,99.40
2019-03-05T08:25:11.661Z,98.60
2019-03-05T08:27:40.205Z,97.30
2019-03-05T08:30:17.464Z,97.80
2019-03-05T08:32:46.080Z,97.40
2019-03-05T08:35:14.531Z,97.00
2019-03-05T08:37:43.026Z,97.30
2019-03-05T08:40:14.060Z,97.50
2019-03-05T08:42:42.651Z,96.60
2019-03-05T08:45:14.294Z,96.30
2019-03-05T08:47:42.991Z,95.70
2019-03-05T08:50:15.732Z,94.00
2019-03-05T08:52:44.345Z,93.60
2019-03-05T08:55:13.293Z,93.00
2019-03-05T08:57:41.813Z,91.00
2019-03-05T09:00:18.367Z,90.80
2019-03-05T09:02:49.009Z,90.30
2019-03-05T09:05:18.949Z,89.80
2019-03-05T09:07:47.526Z,89.50
2019-03-05T09:10:24.157Z,88.60
2019-03-05T09:12:52.718Z,89.00
2019-03-05T09:15:21.315Z,88.70
2019-03-05T09:17:49.835Z,90.60
2019-03-05T09:20:19.259Z,89.50
2019-03-05T09:22:48.065Z,90.20
2019-03-05T09:25:17.563Z,89.60
2019-03-05T09:27:46.283Z,89.10
2019-03-05T09:30:19.805Z,87.40
2019-03-05T09:32:48.428Z,87.90
2019-03-05T09:35:17.550Z,85.80
2019-03-05T09:37:46.811Z,85.80
2019-03-05T09:40:26.437Z,84.10
2019-03-05T09:42:55.133Z,83.80
2019-03-05T09:45:24.201Z,82.80
2019-03-05T09:47:52.762Z,82.80
2019-03-05T09:50:21.382Z,82.20
2019-03-05T09:52:54.842Z,79.70
2019-03-05T09:55:22.621Z,80.40
2019-03-05T09:57:53.609Z,77.30
2019-03-05T10:00:26.727Z,77.10
2019-03-05T10:02:55.428Z,75.20
2019-03-05T10:05:23.909Z,75.70
2019-03-05T10:07:52.502Z,75.20
2019-03-05T10:10:30.899Z,75.50
2019-03-05T10:13:04.431Z,75.00
2019-03-05T10:15:30.514Z,76.40
2019-03-05T10:17:59.135Z,77.20
2019-03-05T10:20:32.929Z,76.00
2019-03-05T10:23:01.603Z,76.60
2019-03-05T10:25:30.239Z,76.70
2019-03-05T10:27:59.367Z,77.80
2019-03-05T10:30:30.347Z,76.10
2019-03-05T10:33:10.599Z,73.20
2019-03-05T10:35:39.312Z,73.80
2019-03-05T10:38:09.924Z,72.50
2019-03-05T10:40:45.788Z,69.20
2019-03-05T10:43:15.886Z,72.70
2019-03-05T10:45:48.002Z,68.80
2019-03-05T10:48:24.636Z,67.80
2019-03-05T10:50:53.170Z,67.80
2019-03-05T10:53:22.124Z,65.00
2019-03-05T10:55:50.654Z,65.10
2019-03-05T10:58:19.588Z,66.00
2019-03-05T11:00:52.767Z,64.60
2019-03-05T11:03:23.879Z,65.80
2019-03-05T11:05:52.831Z,64.50
2019-03-05T11:08:23.893Z,64.90
2019-03-05T11:10:53.103Z,64.90
2019-03-05T11:13:21.880Z,64.90
2019-03-05T11:15:53.707Z,65.90
2019-03-05T11:18:29.497Z,66.80
2019-03-05T11:20:52.538Z,66.70
2019-03-05T11:23:21.079Z,65.70
2019-03-05T11:25:49.712Z,66.30
2019-03-05T11:28:18.257Z,66.10
2019-03-05T11:30:46.847Z,65.70
2019-03-05T11:33:15.395Z,64.70
2019-03-05T11:35:43.997Z,65.10
2019-03-05T11:38:12.804Z,63.70
2019-03-05T11:40:41.437Z,62.20
2019-03-05T11:43:12.058Z,63.00
2019-03-05T11:45:42.656Z,63.60
2019-03-05T11:48:11.335Z,63.00
2019-03-05T11:50:39.989Z,60.90
2019-03-05T11:53:08.518Z,61.50
2019-03-05T11:55:37.113Z,62.10
2019-03-05T11:58:05.755Z,59.50
2019-03-05T12:00:48.356Z,60.20
2019-03-05T12:03:17.646Z,60.20
2019-03-05T12:05:46.276Z,60.60
2019-03-05T12:08:14.782Z,60.90
2019-03-05T12:10:43.491Z,60.20
2019-03-05T12:13:14.362Z,60.70
2019-03-05T12:15:43.959Z,59.30
2019-03-05T12:18:12.615Z,58.30
2019-03-05T12:20:41.197Z,59.10
2019-03-05T12:23:10.309Z,57.10
2019-03-05T12:25:41.367Z,55.60
2019-03-05T12:28:10.974Z,56.20
2019-03-05T12:30:40.485Z,54.10
2019-03-05T12:33:09.270Z,54.00
2019-03-05T12:35:37.901Z,54.10
2019-03-05T12:38:06.817Z,51.50
2019-03-05T12:40:35.358Z,51.60
2019-03-05T12:43:04.160Z,50.90
2019-03-05T12:45:32.766Z,52.20
2019-03-05T12:48:01.340Z,51.60
2019-03-05T12:50:37.730Z,50.60
2019-03-05T12:53:06.740Z,49.10
2019-03-05T12:55:35.300Z,49.20
2019-03-05T12:58:03.984Z,50.00
2019-03-05T13:00:36.321Z,49.10
2019-03-05T13:03:05.173Z,47.30
2019-03-05T13:05:33.851Z,47.70
2019-03-05T13:08:02.442Z,47.50
2019-03-05T13:10:37.306Z,48.40
2019-03-05T13:13:05.461Z,47.90
2019-03-05T13:15:35.349Z,49.10
2019-03-05T13:18:04.137Z,49.30
2019-03-05T13:20:32.646Z,47.80
2019-03-05T13:23:08.465Z,49.60
2019-03-05T13:25:31.404Z,48.40
2019-03-05T13:28:02.313Z,47.30
2019-03-05T13:30:31.314Z,48.30
2019-03-05T13:33:00.899Z,47.80
2019-03-05T13:35:30.827Z,47.80
2019-03-05T13:38:07.654Z,48.20
2019-03-05T13:40:38.325Z,48.90
2019-03-05T13:43:05.474Z,49.40
2019-03-05T13:45:34.295Z,50.00
2019-03-05T13:48:08.643Z,49.60
2019-03-05T13:50:57.909Z,49.80
2019-03-05T13:53:38.403Z,49.80
2019-03-05T13:56:28.003Z,49.80
2019-03-05T13:59:14.634Z,49.50
2019-03-05T14:01:43.936Z,50.40
2019-03-05T14:04:18.019Z,50.30
2019-03-05T14:07:07.383Z,51.20
2019-03-05T14:09:34.910Z,51.20
2019-03-05T14:12:03.432Z,51.30
2019-03-05T14:14:32.060Z,51.20
2019-03-05T14:17:02.403Z,51.10
2019-03-05T14:19:31.219Z,51.50
2019-03-05T14:21:59.761Z,52.20
2019-03-05T14:24:28.389Z,52.30
2019-03-05T14:26:57.080Z,53.00
2019-03-05T14:29:25.799Z,52.60
2019-03-05T14:31:54.453Z,52.80
2019-03-05T14:34:23.075Z,52.30
2019-03-05T14:36:51.815Z,52.60
2019-03-05T14:39:30.360Z,52.50
2019-03-05T14:41:59.091Z,52.60
2019-03-05T14:44:39.105Z,52.90
2019-03-05T14:47:00.200Z,53.50
2019-03-05T14:49:28.992Z,53.30
2019-03-05T14:51:57.603Z,53.80
2019-03-05T14:54:26.158Z,54.10
2019-03-05T14:56:54.799Z,53.00
2019-03-05T14:59:23.468Z,53.80
2019-03-05T15:01:52.052Z,53.90
2019-03-05T15:04:20.544Z,54.10
2019-03-05T15:06:49.937Z,53.90
2019-03-05T15:09:18.647Z,54.50
2019-03-05T15:11:47.270Z,54.20
2019-03-05T15:14:15.843Z,53.80
2019-03-05T15:16:44.437Z,54.20
2019-03-05T15:19:21.514Z,54.00
2019-03-05T15:21:43.253Z,53.60
2019-03-05T15:24:11.739Z,54.70
2019-03-05T15:26:40.375Z,55.20
2019-03-05T15:29:09.117Z,55.40
2019-03-05T15:31:37.707Z,55.90
2019-03-05T15:34:06.351Z,56.00
2019-03-05T15:36:34.931Z,55.50
2019-03-05T15:39:04.012Z,55.90
2019-03-05T15:41:32.673Z,56.20
2019-03-05T15:44:01.268Z,56.00
2019-03-05T15:46:29.831Z,57.00
2019-03-05T15:48:58.425Z,56.90
2019-03-05T15:51:26.997Z,57.40
2019-03-05T15:53:55.603Z,57.10
2019-03-05T15:56:24.172Z,56.40
2019-03-05T15:58:52.638Z,56.30
2019-03-05T16:01:22.596Z,56.50
2019-03-05T16:03:52.004Z,56.90
2019-03-05T16:06:20.587Z,56.60
2019-03-05T16:08:49.082Z,56.90
2019-03-05T16:11:17.648Z,56.60
2019-03-05T16:13:46.274Z,56.30
2019-03-05T16:16:18.371Z,55.90
2019-03-05T16:18:45.069Z,56.20
2019-03-05T16:21:13.560Z,56.00
2019-03-05T16:23:42.115Z,56.00
2019-03-05T16:26:10.721Z,56.10
2019-03-05T16:28:43.394Z,56.30
2019-03-05T16:31:14.200Z,56.20
2019-03-05T16:34:00.933Z,56.60
2019-03-05T16:36:31.149Z,56.70
2019-03-05T16:39:10.592Z,57.10
2019-03-05T16:41:53.541Z,57.50
2019-03-05T16:44:35.885Z,58.10
2019-03-05T16:47:17.203Z,58.40
2019-03-05T16:49:47.439Z,58.70
2019-03-05T16:52:20.769Z,59.60
2019-03-05T16:54:50.942Z,60.00
2019-03-05T16:57:30.144Z,60.40
2019-03-05T17:00:00.406Z,60.80
2019-03-05T17:02:46.738Z,61.20
2019-03-05T17:05:35.661Z,61.50
2019-03-05T17:08:22.193Z,62.10
2019-03-05T17:10:55.056Z,62.60
2019-03-05T17:13:23.597Z,63.10
2019-03-05T17:15:52.132Z,63.60
2019-03-05T17:18:20.790Z,64.20
2019-03-05T17:20:49.307Z,64.40
2019-03-05T17:23:17.877Z,64.70
2019-03-05T17:25:46.410Z,65.30
2019-03-05T17:28:14.955Z,65.80
2019-03-05T17:30:43.493Z,65.80
2019-03-05T17:33:12.080Z,66.50
2019-03-05T17:35:40.758Z,66.90
2019-03-05T17:38:09.437Z,67.30
2019-03-05T17:40:37.910Z,67.80
2019-03-05T17:43:06.726Z,68.10
2019-03-05T17:45:35.242Z,68.20
2019-03-05T17:48:03.869Z,68.90
2019-03-05T17:50:32.462Z,69.20
2019-03-05T17:53:01.014Z,69.80
2019-03-05T17:55:29.639Z,70.10
2019-03-05T17:57:58.556Z,70.40
2019-03-05T18:00:35.051Z,70.70
2019-03-05T18:03:03.648Z,71.20
2019-03-05T18:05:32.536Z,71.60
2019-03-05T18:08:01.149Z,71.70
2019-03-05T18:10:29.678Z,72.20
2019-03-05T18:12:58.200Z,72.60
2019-03-05T18:15:28.694Z,73.40
2019-03-05T18:17:56.988Z,73.40
2019-03-05T18:20:25.467Z,74.00
2019-03-05T18:22:54.023Z,74.40
2019-03-05T18:25:22.683Z,75.10
2019-03-05T18:27:51.249Z,75.80
2019-03-05T18:30:26.623Z,76.40
2019-03-05T18:32:55.697Z,77.30
2019-03-05T18:35:24.333Z,78.10
2019-03-05T18:37:53.365Z,78.90
2019-03-05T18:40:23.258Z,79.80
2019-03-05T18:42:51.966Z,80.60
2019-03-05T18:45:35.133Z,81.20
2019-03-05T18:48:03.647Z,81.90
2019-03-05T18:50:32.419Z,82.80
2019-03-05T18:53:02.423Z,83.40
2019-03-05T18:55:31.338Z,83.80
2019-03-05T18:58:01.053Z,84.40
2019-03-05T19:00:32.064Z,85.00
2019-03-05T19:03:08.999Z,86.00
2019-03-05T19:05:37.756Z,87.60
2019-03-05T19:08:06.340Z,89.60
2019-03-05T19:10:34.968Z,90.20
2019-03-05T19:13:03.701Z,90.30
2019-03-05T19:15:32.315Z,90.50
2019-03-05T19:18:01.270Z,90.90
2019-03-05T19:20:31.287Z,91.10
2019-03-05T19:23:00.111Z,91.60
2019-03-05T19:25:29.968Z,92.00
2019-03-05T19:27:59.667Z,92.60
2019-03-05T19:30:46.356Z,93.30
2019-03-05T19:33:15.086Z,94.00
2019-03-05T19:35:43.739Z,95.40
2019-03-05T19:38:12.327Z,96.50
2019-03-05T19:40:43.944Z,98.70
2019-03-05T19:43:12.493Z,99.90
2019-03-05T19:45:40.969Z,99.90
2019-03-05T19:48:09.487Z,99.90
2019-03-05T19:50:38.192Z,99.90
2019-03-05T19:53:07.175Z,99.90
2019-03-05T19:55:35.867Z,99.90
2019-03-05T19:58:17.015Z,99.90
2019-03-05T20:00:58.047Z,99.90
2019-03-05T20:03:26.843Z,99.90
2019-03-05T20:05:55.514Z,99.90
2019-03-05T20:08:24.112Z,99.90
2019-03-05T20:10:52.695Z,99.90
2019-03-05T20:13:21.292Z,99.90
2019-03-05T20:15:49.817Z,99.90
2019-03-05T20:18:18.380Z,99.90
2019-03-05T20:20:47.085Z,99.90
2019-03-05T20:23:15.734Z,99.90
2019-03-05T20:25:44.275Z,99.90
2019-03-05T20:28:12.840Z,99.90
2019-03-05T20:30:41.489Z,99.90
2019-03-05T20:33:10.350Z,99.90
2019-03-05T20:35:38.943Z,99.90
2019-03-05T20:38:07.627Z,99.90
2019-03-05T20:40:36.265Z,99.90
2019-03-05T20:43:05.941Z,99.90
2019-03-05T20:45:39.874Z,99.90
2019-03-05T20:48:08.532Z,99.90
2019-03-05T20:50:37.066Z,99.90
2019-03-05T20:53:06.382Z,99.90
2019-03-05T20:55:34.957Z,99.90
2019-03-05T20:58:03.584Z,99.90
2019-03-05T21:00:38.480Z,99.90
2019-03-05T21:03:08.387Z,99.90
2019-03-05T21:05:42.687Z,99.90
2019-03-05T21:08:11.328Z,99.90
2019-03-05T21:10:40.575Z,99.90
2019-03-05T21:13:09.411Z,99.90
2019-03-05T21:15:38.055Z,99.90
2019-03-05T21:18:09.370Z,99.90
2019-03-05T21:20:39.230Z,99.90
2019-03-05T21:23:07.940Z,99.90
2019-03-05T21:25:36.553Z,99.90
2019-03-05T21:28:05.009Z,99.90
2019-03-05T21:30:33.816Z,99.90
2019-03-05T21:33:02.405Z,99.90
2019-03-05T21:35:31.035Z,99.90
2019-03-05T21:37:59.580Z,99.90
2019-03-05T21:40:30.126Z,99.90
2019-03-05T21:42:58.751Z,99.90
2019-03-05T21:45:41.209Z,99.90
2019-03-05T21:48:09.827Z,99.90
2019-03-05T21:50:38.345Z,99.90
2019-03-05T21:53:06.946Z,99.90
2019-03-05T21:55:35.493Z,99.90
2019-03-05T21:58:04.171Z,99.90
2019-03-05T22:00:33.883Z,99.90
2019-03-05T22:03:02.945Z,99.90
2019-03-05T22:05:31.588Z,99.90
2019-03-05T22:08:00.286Z,99.90
2019-03-05T22:10:28.955Z,99.90
2019-03-05T22:12:57.645Z,99.90
2019-03-05T22:15:30.981Z,99.90
2019-03-05T22:17:59.850Z,99.90
2019-03-05T22:20:28.560Z,99.90
2019-03-05T22:22:57.442Z,99.90
2019-03-05T22:25:26.042Z,99.90
2019-03-05T22:27:54.566Z,99.90
2019-03-05T22:30:28.263Z,99.90
2019-03-05T22:32:56.874Z,99.90
2019-03-05T22:35:25.558Z,99.90
2019-03-05T22:37:54.264Z,99.90
2019-03-05T22:40:24.815Z,99.90
2019-03-05T22:42:53.380Z,99.90
2019-03-05T22:45:30.146Z,99.90
2019-03-05T22:47:58.745Z,99.90
2019-03-05T22:50:27.317Z,99.90
2019-03-05T22:52:55.973Z,99.90
2019-03-05T22:55:24.654Z,99.90
2019-03-05T22:57:53.239Z,99.90
2019-03-05T23:00:32.227Z,99.90
2019-03-05T23:03:01.626Z,99.90
2019-03-05T23:05:30.462Z,99.90
2019-03-05T23:07:59.068Z,99.90
2019-03-05T23:10:27.741Z,99.90
2019-03-05T23:12:56.376Z,99.90
2019-03-05T23:15:25.191Z,99.90
2019-03-05T23:17:54.020Z,99.90
2019-03-05T23:20:22.622Z,99.90
2019-03-05T23:22:51.065Z,99.90
2019-03-05T23:25:20.668Z,99.90
2019-03-05T23:27:49.122Z,99.90
2019-03-05T23:30:20.695Z,99.90
2019-03-05T23:32:53.396Z,99.90
2019-03-05T23:35:22.108Z,99.90
2019-03-05T23:37:50.816Z,99.90
2019-03-05T23:40:19.806Z,99.90
2019-03-05T23:42:48.460Z,99.90
2019-03-05T23:45:18.528Z,99.90
2019-03-05T23:47:47.360Z,99.90
2019-03-05T23:50:16.665Z,99.90
2019-03-05T23:52:45.375Z,99.90
2019-03-05T23:55:14.438Z,99.90
2019-03-05T23:57:43.236Z,99.90
